createdAt,value
2023-02-05T00:00:03.599Z,1026.00
2023-02-05T00:01:03.952Z,1026.01
2023-02-05T00:02:04.032Z,1025.97
2023-02-05T00:03:04.093Z,1025.97
2023-02-05T00:04:03.589Z,1025.94
2023-02-05T00:05:03.638Z,1025.97
2023-02-05T00:06:03.746Z,1026.00
2023-02-05T00:07:04.218Z,1025.99
2023-02-05T00:08:04.275Z,1025.94
2023-02-05T00:09:03.538Z,1025.94
2023-02-05T00:10:03.635Z,1025.93
2023-02-05T00:11:03.537Z,1025.90
2023-02-05T00:12:03.560Z,1025.91
2023-02-05T00:13:03.545Z,1025.90
2023-02-05T00:14:03.499Z,1025.95
2023-02-05T00:15:03.722Z,1025.90
2023-02-05T00:16:03.512Z,1025.91
2023-02-05T00:17:03.751Z,1025.97
2023-02-05T00:18:03.882Z,1025.91
2023-02-05T00:19:03.818Z,1025.83
2023-02-05T00:20:03.534Z,1025.84
2023-02-05T00:21:04.032Z,1025.77
2023-02-05T00:22:03.731Z,1025.79
2023-02-05T00:23:03.553Z,1025.75
2023-02-05T00:24:03.453Z,1025.74
2023-02-05T00:25:04.259Z,1025.73
2023-02-05T00:26:04.310Z,1025.72
2023-02-05T00:27:04.211Z,1025.75
2023-02-05T00:28:03.447Z,1025.69
2023-02-05T00:29:03.668Z,1025.65
2023-02-05T00:30:03.424Z,1025.60
2023-02-05T00:31:03.707Z,1025.62
2023-02-05T00:32:03.404Z,1025.68
2023-02-05T00:33:03.442Z,1025.56
2023-02-05T00:34:03.487Z,1025.55
2023-02-05T00:35:03.609Z,1025.48
2023-02-05T00:36:03.616Z,1025.53
2023-02-05T00:37:03.620Z,1025.46
2023-02-05T00:38:03.395Z,1025.38
2023-02-05T00:39:03.701Z,1025.38
2023-02-05T00:40:03.468Z,1025.44
2023-02-05T00:41:03.794Z,1025.38
2023-02-05T00:42:03.835Z,1025.40
2023-02-05T00:43:03.318Z,1025.38
2023-02-05T00:44:03.306Z,1025.42
2023-02-05T00:45:03.300Z,1025.36
2023-02-05T00:46:03.383Z,1025.37
2023-02-05T00:47:03.284Z,1025.37
2023-02-05T00:48:03.294Z,1025.32
2023-02-05T00:49:03.306Z,1025.28
2023-02-05T00:50:03.315Z,1025.29
2023-02-05T00:51:03.329Z,1025.32
2023-02-05T00:52:03.344Z,1025.35
2023-02-05T00:53:03.352Z,1025.33
2023-02-05T00:54:03.377Z,1025.34
2023-02-05T00:55:03.361Z,1025.35
2023-02-05T00:56:03.275Z,1025.31
2023-02-05T00:57:03.405Z,1025.29
2023-02-05T00:58:03.332Z,1025.25
2023-02-05T00:59:03.431Z,1025.27
2023-02-05T01:00:03.217Z,1025.22
2023-02-05T01:01:03.255Z,1025.20
2023-02-05T01:02:03.248Z,1025.21
2023-02-05T01:03:03.290Z,1025.18
2023-02-05T01:04:03.359Z,1025.07
2023-02-05T01:05:03.305Z,1025.12
2023-02-05T01:06:03.538Z,1025.07
2023-02-05T01:07:03.200Z,1024.97
2023-02-05T01:08:03.520Z,1024.98
2023-02-05T01:09:03.257Z,1024.94
2023-02-05T01:10:03.161Z,1024.97
2023-02-05T01:11:03.241Z,1024.94
2023-02-05T01:12:03.255Z,1024.97
2023-02-05T01:13:03.224Z,1025.04
2023-02-05T01:14:03.311Z,1025.01
2023-02-05T01:15:03.362Z,1025.01
2023-02-05T01:16:03.452Z,1024.94
2023-02-05T01:17:03.457Z,1024.97
2023-02-05T01:18:03.101Z,1024.96
2023-02-05T01:19:03.302Z,1024.97
2023-02-05T01:20:03.600Z,1024.90
2023-02-05T01:21:03.364Z,1024.90
2023-02-05T01:22:03.198Z,1024.93
2023-02-05T01:23:03.190Z,1024.90
2023-02-05T01:24:03.099Z,1024.87
2023-02-05T01:25:03.111Z,1024.90
2023-02-05T01:26:03.361Z,1024.89
2023-02-05T01:27:03.076Z,1024.90
2023-02-05T01:28:03.920Z,1024.85
2023-02-05T01:29:03.086Z,1024.77
2023-02-05T01:30:03.030Z,1024.80
2023-02-05T01:31:03.213Z,1024.79
2023-02-05T01:32:03.009Z,1024.78
2023-02-05T01:33:02.999Z,1024.76
2023-02-05T01:34:03.020Z,1024.69
2023-02-05T01:35:03.014Z,1024.72
2023-02-05T01:36:03.046Z,1024.68
2023-02-05T01:37:03.066Z,1024.68
2023-02-05T01:38:03.065Z,1024.67
2023-02-05T01:39:03.074Z,1024.64
2023-02-05T01:40:02.972Z,1024.61
2023-02-05T01:41:02.956Z,1024.61
2023-02-05T01:42:03.032Z,1024.56
2023-02-05T01:43:02.933Z,1024.54
2023-02-05T01:44:02.981Z,1024.58
2023-02-05T01:45:03.152Z,1024.53
2023-02-05T01:46:03.185Z,1024.54
2023-02-05T01:47:02.897Z,1024.57
2023-02-05T01:48:03.106Z,1024.56
2023-02-05T01:49:02.998Z,1024.59
2023-02-05T01:50:02.935Z,1024.64
2023-02-05T01:51:02.900Z,1024.65
2023-02-05T01:52:02.936Z,1024.68
2023-02-05T01:53:02.998Z,1024.75
2023-02-05T01:54:02.926Z,1024.74
2023-02-05T01:55:03.076Z,1024.73
2023-02-05T01:56:03.124Z,1024.77
2023-02-05T01:57:02.974Z,1024.73
2023-02-05T01:58:03.223Z,1024.78
2023-02-05T01:59:03.025Z,1024.76
2023-02-05T02:00:02.803Z,1024.78
2023-02-05T02:01:03.006Z,1024.77
2023-02-05T02:02:02.804Z,1024.82
2023-02-05T02:03:02.784Z,1024.77
2023-02-05T02:04:02.797Z,1024.73
2023-02-05T02:05:02.835Z,1024.69
2023-02-05T02:06:02.813Z,1024.67
2023-02-05T02:07:02.756Z,1024.64
2023-02-05T02:08:02.756Z,1024.62
2023-02-05T02:09:02.880Z,1024.62
2023-02-05T02:10:02.899Z,1024.52
2023-02-05T02:11:02.909Z,1024.53
2023-02-05T02:12:02.760Z,1024.51
2023-02-05T02:13:02.721Z,1024.51
2023-02-05T02:14:02.871Z,1024.44
2023-02-05T02:15:02.968Z,1024.47
2023-02-05T02:16:03.105Z,1024.41
2023-02-05T02:17:02.742Z,1024.34
2023-02-05T02:18:02.734Z,1024.32
2023-02-05T02:19:02.707Z,1024.31
2023-02-05T02:20:02.701Z,1024.27
2023-02-05T02:21:03.008Z,1024.21
2023-02-05T02:22:02.813Z,1024.21
2023-02-05T02:23:02.658Z,1024.22
2023-02-05T02:24:02.706Z,1024.17
2023-02-05T02:25:02.760Z,1024.17
2023-02-05T02:26:02.806Z,1024.15
2023-02-05T02:27:02.859Z,1024.15
2023-02-05T02:28:03.012Z,1024.14
2023-02-05T02:29:02.974Z,1024.14
2023-02-05T02:30:02.676Z,1024.15
2023-02-05T02:31:03.168Z,1024.19
2023-02-05T02:32:02.833Z,1024.18
2023-02-05T02:33:03.114Z,1024.20
2023-02-05T02:34:03.208Z,1024.17
2023-02-05T02:35:02.734Z,1024.24
2023-02-05T02:36:02.605Z,1024.21
2023-02-05T02:37:03.013Z,1024.19
2023-02-05T02:38:03.263Z,1024.22
2023-02-05T02:39:02.935Z,1024.25
2023-02-05T02:40:03.038Z,1024.31
2023-02-05T02:41:02.555Z,1024.30
2023-02-05T02:42:03.317Z,1024.37
2023-02-05T02:43:02.541Z,1024.38
2023-02-05T02:44:02.555Z,1024.33
2023-02-05T02:45:02.533Z,1024.33
2023-02-05T02:46:02.682Z,1024.41
2023-02-05T02:47:02.554Z,1024.44
2023-02-05T02:48:02.774Z,1024.46
2023-02-05T02:49:02.568Z,1024.46
2023-02-05T02:50:02.514Z,1024.41
2023-02-05T02:51:02.570Z,1024.34
2023-02-05T02:52:02.525Z,1024.29
2023-02-05T02:53:02.965Z,1024.31
2023-02-05T02:54:02.540Z,1024.28
2023-02-05T02:55:02.939Z,1024.35
2023-02-05T02:56:03.171Z,1024.31
2023-02-05T02:57:02.563Z,1024.31
2023-02-05T02:58:02.569Z,1024.31
2023-02-05T02:59:02.457Z,1024.33
2023-02-05T03:00:02.509Z,1024.33
2023-02-05T03:01:02.622Z,1024.28
2023-02-05T03:02:02.546Z,1024.36
2023-02-05T03:03:02.668Z,1024.38
2023-02-05T03:04:02.543Z,1024.32
2023-02-05T03:05:02.406Z,1024.34
2023-02-05T03:06:02.412Z,1024.28
2023-02-05T03:07:02.685Z,1024.27
2023-02-05T03:08:02.419Z,1024.19
2023-02-05T03:09:02.414Z,1024.11
2023-02-05T03:10:02.442Z,1024.12
2023-02-05T03:11:02.378Z,1024.09
2023-02-05T03:12:02.442Z,1024.16
2023-02-05T03:13:02.352Z,1024.10
2023-02-05T03:14:02.344Z,1024.14
2023-02-05T03:15:02.382Z,1024.12
2023-02-05T03:16:02.420Z,1024.17
2023-02-05T03:17:02.380Z,1024.10
2023-02-05T03:18:02.394Z,1024.07
2023-02-05T03:19:02.411Z,1024.11
2023-02-05T03:20:02.314Z,1024.20
2023-02-05T03:21:02.434Z,1024.13
2023-02-05T03:22:02.446Z,1024.12
2023-02-05T03:23:02.460Z,1024.08
2023-02-05T03:24:02.475Z,1024.17
2023-02-05T03:25:02.258Z,1024.19
2023-02-05T03:26:02.511Z,1024.17
2023-02-05T03:27:02.504Z,1024.18
2023-02-05T03:28:02.639Z,1024.18
2023-02-05T03:29:02.401Z,1024.19
2023-02-05T03:30:02.624Z,1024.19
2023-02-05T03:31:02.623Z,1024.16
2023-02-05T03:32:02.590Z,1024.17
2023-02-05T03:33:02.216Z,1024.14
2023-02-05T03:34:02.226Z,1024.13
2023-02-05T03:35:02.206Z,1024.07
2023-02-05T03:36:02.205Z,1024.00
2023-02-05T03:37:02.217Z,1024.06
2023-02-05T03:38:02.230Z,1024.01
2023-02-05T03:39:02.231Z,1023.92
2023-02-05T03:40:02.245Z,1023.90
2023-02-05T03:41:02.164Z,1023.88
2023-02-05T03:42:02.230Z,1023.80
2023-02-05T03:43:02.447Z,1023.74
2023-02-05T03:44:02.556Z,1023.72
2023-02-05T03:45:02.130Z,1023.70
2023-02-05T03:46:02.801Z,1023.74
2023-02-05T03:47:02.717Z,1023.73
2023-02-05T03:48:02.212Z,1023.78
2023-02-05T03:49:02.136Z,1023.71
2023-02-05T03:50:02.505Z,1023.74
2023-02-05T03:51:02.681Z,1023.77
2023-02-05T03:52:02.119Z,1023.82
2023-02-05T03:53:02.859Z,1023.80
2023-02-05T03:54:02.568Z,1023.85
2023-02-05T03:55:02.202Z,1023.83
2023-02-05T03:56:02.888Z,1023.85
2023-02-05T03:57:02.923Z,1023.84
2023-02-05T03:58:02.439Z,1023.90
2023-02-05T03:59:02.934Z,1023.98
2023-02-05T04:00:02.970Z,1023.99
2023-02-05T04:01:02.970Z,1023.93
2023-02-05T04:02:02.150Z,1023.91
2023-02-05T04:03:02.285Z,1023.92
2023-02-05T04:04:02.985Z,1023.97
2023-02-05T04:05:02.912Z,1023.95
2023-02-05T04:06:01.992Z,1023.93
2023-02-05T04:07:01.982Z,1024.02
2023-02-05T04:08:02.685Z,1023.97
2023-02-05T04:09:01.994Z,1023.99
2023-02-05T04:10:01.970Z,1023.98
2023-02-05T04:11:02.002Z,1024.03
2023-02-05T04:12:02.037Z,1024.04
2023-02-05T04:13:02.012Z,1024.03
2023-02-05T04:14:02.071Z,1024.05
2023-02-05T04:15:02.034Z,1024.00
2023-02-05T04:16:02.137Z,1024.03
2023-02-05T04:17:02.120Z,1023.96
2023-02-05T04:18:02.137Z,1023.93
2023-02-05T04:19:02.139Z,1024.00
2023-02-05T04:20:02.027Z,1024.00
2023-02-05T04:21:01.915Z,1024.03
2023-02-05T04:22:01.901Z,1024.07
2023-02-05T04:23:02.188Z,1024.10
2023-02-05T04:24:01.900Z,1024.04
2023-02-05T04:25:02.234Z,1024.07
2023-02-05T04:26:02.255Z,1024.13
2023-02-05T04:27:02.282Z,1024.10
2023-02-05T04:28:01.951Z,1024.11
2023-02-05T04:29:01.936Z,1024.10
2023-02-05T04:30:01.860Z,1024.11
2023-02-05T04:31:01.901Z,1024.12
2023-02-05T04:32:01.936Z,1024.11
2023-02-05T04:33:01.907Z,1024.10
2023-02-05T04:34:01.953Z,1024.09
2023-02-05T04:35:01.981Z,1024.05
2023-02-05T04:36:02.128Z,1024.01
2023-02-05T04:37:02.175Z,1023.99
2023-02-05T04:38:01.800Z,1024.00
2023-02-05T04:39:01.917Z,1023.94
2023-02-05T04:40:02.344Z,1023.89
2023-02-05T04:41:02.399Z,1023.84
2023-02-05T04:42:02.224Z,1023.83
2023-02-05T04:43:02.446Z,1023.79
2023-02-05T04:44:02.542Z,1023.74
2023-02-05T04:45:01.826Z,1023.64
2023-02-05T04:46:01.767Z,1023.62
2023-02-05T04:47:01.795Z,1023.69
2023-02-05T04:48:01.843Z,1023.70
2023-02-05T04:49:01.816Z,1023.78
2023-02-05T04:50:01.943Z,1023.82
2023-02-05T04:51:01.984Z,1023.91
2023-02-05T04:52:01.695Z,1023.92
2023-02-05T04:53:02.147Z,1023.95
2023-02-05T04:54:01.690Z,1023.96
2023-02-05T04:55:01.690Z,1023.99
2023-02-05T04:56:01.696Z,1023.89
2023-02-05T04:57:01.695Z,1023.91
2023-02-05T04:58:01.707Z,1023.94
2023-02-05T04:59:01.729Z,1023.90
2023-02-05T05:00:01.726Z,1023.95
2023-02-05T05:01:01.676Z,1023.98
2023-02-05T05:02:02.536Z,1023.94
2023-02-05T05:03:01.674Z,1023.94
2023-02-05T05:04:01.613Z,1023.92
2023-02-05T05:05:01.631Z,1023.91
2023-02-05T05:06:01.604Z,1023.91
2023-02-05T05:07:01.602Z,1023.94
2023-02-05T05:08:01.681Z,1023.93
2023-02-05T05:09:01.684Z,1023.94
2023-02-05T05:10:01.694Z,1023.88
2023-02-05T05:11:01.709Z,1023.88
2023-02-05T05:12:01.726Z,1023.94
2023-02-05T05:13:01.611Z,1023.96
2023-02-05T05:14:01.755Z,1023.92
2023-02-05T05:15:01.720Z,1023.94
2023-02-05T05:16:01.823Z,1023.93
2023-02-05T05:17:01.788Z,1023.90
2023-02-05T05:18:01.801Z,1023.82
2023-02-05T05:19:01.554Z,1023.85
2023-02-05T05:20:01.829Z,1023.82
2023-02-05T05:21:01.532Z,1023.78
2023-02-05T05:22:01.540Z,1023.76
2023-02-05T05:23:01.532Z,1023.77
2023-02-05T05:24:01.528Z,1023.72
2023-02-05T05:25:01.527Z,1023.69
2023-02-05T05:26:01.631Z,1023.70
2023-02-05T05:27:01.656Z,1023.73
2023-02-05T05:28:01.757Z,1023.75
2023-02-05T05:29:01.785Z,1023.76
2023-02-05T05:30:01.830Z,1023.74
2023-02-05T05:31:01.896Z,1023.76
2023-02-05T05:32:01.457Z,1023.72
2023-02-05T05:33:01.705Z,1023.69
2023-02-05T05:34:01.983Z,1023.70
2023-02-05T05:35:02.174Z,1023.71
2023-02-05T05:36:02.035Z,1023.67
2023-02-05T05:37:02.068Z,1023.63
2023-02-05T05:38:01.473Z,1023.63
2023-02-05T05:39:01.395Z,1023.64
2023-02-05T05:40:01.380Z,1023.53
2023-02-05T05:41:01.383Z,1023.60
2023-02-05T05:42:01.386Z,1023.53
2023-02-05T05:43:01.393Z,1023.53
2023-02-05T05:44:01.395Z,1023.50
2023-02-05T05:45:02.150Z,1023.55
2023-02-05T05:46:01.362Z,1023.52
2023-02-05T05:47:01.344Z,1023.50
2023-02-05T05:48:01.340Z,1023.52
2023-02-05T05:49:01.435Z,1023.50
2023-02-05T05:50:01.365Z,1023.49
2023-02-05T05:51:01.403Z,1023.56
2023-02-05T05:52:01.395Z,1023.54
2023-02-05T05:53:01.409Z,1023.50
2023-02-05T05:54:01.408Z,1023.58
2023-02-05T05:55:01.429Z,1023.59
2023-02-05T05:56:01.280Z,1023.56
2023-02-05T05:57:01.278Z,1023.56
2023-02-05T05:58:01.305Z,1023.51
2023-02-05T05:59:01.346Z,1023.57
2023-02-05T06:00:01.298Z,1023.51
2023-02-05T06:01:01.467Z,1023.52
2023-02-05T06:02:01.535Z,1023.52
2023-02-05T06:03:01.548Z,1023.56
2023-02-05T06:04:03.903Z,1023.49
2023-02-05T06:05:01.555Z,1023.49
2023-02-05T06:06:01.563Z,1023.51
2023-02-05T06:07:01.583Z,1023.48
2023-02-05T06:08:01.185Z,1023.42
2023-02-05T06:09:01.614Z,1023.39
2023-02-05T06:10:01.535Z,1023.40
2023-02-05T06:11:01.634Z,1023.34
2023-02-05T06:12:01.652Z,1023.32
2023-02-05T06:13:01.172Z,1023.27
2023-02-05T06:14:01.178Z,1023.32
2023-02-05T06:15:01.205Z,1023.33
2023-02-05T06:16:01.185Z,1023.31
2023-02-05T06:17:01.131Z,1023.32
2023-02-05T06:18:01.148Z,1023.30
2023-02-05T06:19:01.147Z,1023.29
2023-02-05T06:20:01.125Z,1023.29
2023-02-05T06:21:01.211Z,1023.44
2023-02-05T06:22:01.187Z,1023.50
2023-02-05T06:23:01.195Z,1023.48
2023-02-05T06:24:01.215Z,1023.48
2023-02-05T06:25:01.230Z,1023.45
2023-02-05T06:26:01.235Z,1023.45
2023-02-05T06:27:01.244Z,1023.42
2023-02-05T06:28:01.083Z,1023.43
2023-02-05T06:29:01.275Z,1023.46
2023-02-05T06:30:01.296Z,1023.44
2023-02-05T06:31:01.422Z,1023.47
2023-02-05T06:32:01.174Z,1023.44
2023-02-05T06:33:01.034Z,1023.42
2023-02-05T06:34:01.139Z,1023.39
2023-02-05T06:35:01.005Z,1023.41
2023-02-05T06:36:01.144Z,1023.44
2023-02-05T06:37:01.076Z,1023.45
2023-02-05T06:38:00.986Z,1023.42
2023-02-05T06:39:01.308Z,1023.37
2023-02-05T06:40:01.360Z,1023.35
2023-02-05T06:41:00.993Z,1023.35
2023-02-05T06:42:01.297Z,1023.29
2023-02-05T06:43:01.470Z,1023.32
2023-02-05T06:44:01.383Z,1023.29
2023-02-05T06:45:01.501Z,1023.32
2023-02-05T06:46:01.661Z,1023.26
2023-02-05T06:47:01.298Z,1023.28
2023-02-05T06:48:01.093Z,1023.29
2023-02-05T06:49:01.412Z,1023.25
2023-02-05T06:50:01.637Z,1023.27
2023-02-05T06:51:01.633Z,1023.25
2023-02-05T06:52:00.921Z,1023.28
2023-02-05T06:53:01.032Z,1023.33
2023-02-05T06:54:00.954Z,1023.25
2023-02-05T06:55:01.664Z,1023.24
2023-02-05T06:56:01.682Z,1023.25
2023-02-05T06:57:01.680Z,1023.27
2023-02-05T06:58:00.884Z,1023.25
2023-02-05T06:59:00.893Z,1023.22
2023-02-05T07:00:01.418Z,1023.23
2023-02-05T07:01:01.189Z,1023.22
2023-02-05T07:02:01.056Z,1023.30
2023-02-05T07:03:01.758Z,1023.24
2023-02-05T07:04:01.821Z,1023.23
2023-02-05T07:05:00.820Z,1023.24
2023-02-05T07:06:00.821Z,1023.17
2023-02-05T07:07:00.830Z,1023.23
2023-02-05T07:08:00.834Z,1023.24
2023-02-05T07:09:00.830Z,1023.16
2023-02-05T07:10:00.823Z,1023.14
2023-02-05T07:11:00.968Z,1023.14
2023-02-05T07:12:00.784Z,1023.14
2023-02-05T07:13:00.783Z,1023.09
2023-02-05T07:14:00.783Z,1023.14
2023-02-05T07:15:00.900Z,1023.07
2023-02-05T07:16:00.924Z,1023.09
2023-02-05T07:17:00.899Z,1023.11
2023-02-05T07:18:01.011Z,1023.16
2023-02-05T07:19:00.991Z,1023.16
2023-02-05T07:20:00.741Z,1023.13
2023-02-05T07:21:00.754Z,1023.08
2023-02-05T07:22:00.753Z,1023.08
2023-02-05T07:23:00.731Z,1023.08
2023-02-05T07:24:00.844Z,1023.10
2023-02-05T07:25:03.912Z,1023.10
2023-02-05T07:26:00.752Z,1023.12
2023-02-05T07:27:00.693Z,1023.07
2023-02-05T07:28:00.719Z,1023.09
2023-02-05T07:29:00.769Z,1023.09
2023-02-05T07:30:00.780Z,1023.09
2023-02-05T07:31:00.842Z,1023.09
2023-02-05T07:32:00.839Z,1023.09
2023-02-05T07:33:00.739Z,1023.11
2023-02-05T07:34:00.818Z,1023.09
2023-02-05T07:35:00.657Z,1023.03
2023-02-05T07:36:00.820Z,1023.00
2023-02-05T07:37:00.825Z,1023.06
2023-02-05T07:38:00.835Z,1023.06
2023-02-05T07:39:00.834Z,1023.07
2023-02-05T07:40:00.658Z,1023.01
2023-02-05T07:41:00.871Z,1022.98
2023-02-05T07:42:00.755Z,1023.02
2023-02-05T07:43:00.586Z,1022.93
2023-02-05T07:44:00.592Z,1022.93
2023-02-05T07:45:00.597Z,1022.95
2023-02-05T07:46:00.587Z,1022.88
2023-02-05T07:47:00.591Z,1022.93
2023-02-05T07:48:00.688Z,1022.93
2023-02-05T07:49:00.697Z,1022.87
2023-02-05T07:50:00.596Z,1022.88
2023-02-05T07:51:00.538Z,1022.94
2023-02-05T07:52:00.547Z,1022.98
2023-02-05T07:53:00.934Z,1022.94
2023-02-05T07:54:02.004Z,1022.96
2023-02-05T07:55:00.945Z,1022.95
2023-02-05T07:56:01.048Z,1022.92
2023-02-05T07:57:00.990Z,1022.94
2023-02-05T07:58:00.582Z,1022.99
2023-02-05T07:59:00.906Z,1023.02
2023-02-05T08:00:00.526Z,1023.05
2023-02-05T08:01:00.549Z,1022.98
2023-02-05T08:02:01.215Z,1023.03
2023-02-05T08:03:00.796Z,1023.00
2023-02-05T08:04:00.668Z,1023.03
2023-02-05T08:05:00.489Z,1023.07
2023-02-05T08:06:00.611Z,1023.07
2023-02-05T08:07:00.743Z,1023.06
2023-02-05T08:08:00.530Z,1023.08
2023-02-05T08:09:00.630Z,1023.06
2023-02-05T08:10:00.855Z,1023.11
2023-02-05T08:11:00.449Z,1023.10
2023-02-05T08:12:00.380Z,1023.09
2023-02-05T08:13:00.472Z,1023.12
2023-02-05T08:14:00.473Z,1023.10
2023-02-05T08:15:00.483Z,1023.15
2023-02-05T08:16:00.596Z,1023.08
2023-02-05T08:17:00.509Z,1023.11
2023-02-05T08:18:00.589Z,1023.05
2023-02-05T08:19:00.488Z,1023.05
2023-02-05T08:20:00.723Z,1023.02
2023-02-05T08:21:00.329Z,1023.02
2023-02-05T08:22:00.849Z,1023.04
2023-02-05T08:23:00.338Z,1023.02
2023-02-05T08:24:00.401Z,1023.02
2023-02-05T08:25:00.418Z,1023.10
2023-02-05T08:26:00.428Z,1023.07
2023-02-05T08:27:00.558Z,1023.06
2023-02-05T08:28:00.679Z,1023.07
2023-02-05T08:29:00.567Z,1023.01
2023-02-05T08:30:00.580Z,1023.03
2023-02-05T08:31:00.711Z,1023.03
2023-02-05T08:32:00.801Z,1023.00
2023-02-05T08:33:00.394Z,1023.02
2023-02-05T08:34:00.613Z,1023.02
2023-02-05T08:35:00.245Z,1023.00
2023-02-05T08:36:00.619Z,1023.07
2023-02-05T08:37:00.828Z,1023.08
2023-02-05T08:38:00.218Z,1023.06
2023-02-05T08:39:00.676Z,1023.04
2023-02-05T08:40:00.306Z,1023.01
2023-02-05T08:41:00.657Z,1023.02
2023-02-05T08:42:01.088Z,1023.01
2023-02-05T08:43:01.657Z,1022.98
2023-02-05T08:44:00.675Z,1023.01
2023-02-05T08:45:00.360Z,1023.01
2023-02-05T08:46:00.607Z,1022.96
2023-02-05T08:47:00.355Z,1022.95
2023-02-05T08:48:01.104Z,1022.95
2023-02-05T08:49:00.776Z,1022.91
2023-02-05T08:50:00.302Z,1022.93
2023-02-05T08:51:00.921Z,1022.93
2023-02-05T08:52:00.958Z,1022.93
2023-02-05T08:53:00.813Z,1022.93
2023-02-05T08:54:00.950Z,1022.92
2023-02-05T08:55:00.924Z,1022.93
2023-02-05T08:56:00.351Z,1022.93
2023-02-05T08:57:00.652Z,1022.88
2023-02-05T08:58:00.898Z,1022.93
2023-02-05T08:59:01.051Z,1022.90
2023-02-05T09:00:01.255Z,1022.88
2023-02-05T09:01:00.231Z,1022.91
2023-02-05T09:02:00.189Z,1022.86
2023-02-05T09:03:00.194Z,1022.88
2023-02-05T09:04:00.234Z,1022.88
2023-02-05T09:05:08.356Z,1022.86
2023-02-05T09:06:00.277Z,1022.85
2023-02-05T09:07:00.231Z,1022.86
2023-02-05T09:08:00.438Z,1022.84
2023-02-05T09:09:00.435Z,1022.83
2023-02-05T09:09:59.997Z,1022.85
2023-02-05T09:11:00.451Z,1022.80
2023-02-05T09:11:59.996Z,1022.82
2023-02-05T09:13:00.001Z,1022.80
2023-02-05T09:14:00.089Z,1022.83
2023-02-05T09:14:59.958Z,1022.83
2023-02-05T09:15:59.967Z,1022.78
2023-02-05T09:16:59.945Z,1022.86
2023-02-05T09:17:59.945Z,1022.87
2023-02-05T09:18:59.955Z,1022.84
2023-02-05T09:19:59.973Z,1022.83
2023-02-05T09:20:59.968Z,1022.87
2023-02-05T09:21:59.939Z,1022.91
2023-02-05T09:23:00.128Z,1022.90
2023-02-05T09:23:59.986Z,1022.89
2023-02-05T09:25:00.147Z,1022.86
2023-02-05T09:26:00.155Z,1022.90
2023-02-05T09:27:00.016Z,1022.86
2023-02-05T09:27:59.914Z,1022.88
2023-02-05T09:29:00.179Z,1022.86
2023-02-05T09:29:59.982Z,1022.81
2023-02-05T09:31:00.040Z,1022.78
2023-02-05T09:32:00.196Z,1022.82
2023-02-05T09:32:59.867Z,1022.85
2023-02-05T09:33:59.876Z,1022.84
2023-02-05T09:35:00.036Z,1022.84
2023-02-05T09:35:59.866Z,1022.82
2023-02-05T09:36:59.824Z,1022.78
2023-02-05T09:37:59.841Z,1022.76
2023-02-05T09:39:13.493Z,1022.78
2023-02-05T09:40:19.990Z,1022.74
2023-02-05T09:40:59.894Z,1022.72
2023-02-05T09:41:59.905Z,1022.71
2023-02-05T09:43:00.177Z,1022.69
2023-02-05T09:44:00.126Z,1022.68
2023-02-05T09:45:00.111Z,1022.71
2023-02-05T09:45:59.926Z,1022.71
2023-02-05T09:46:59.774Z,1022.68
2023-02-05T09:47:59.951Z,1022.77
2023-02-05T09:49:00.129Z,1022.71
2023-02-05T09:49:59.913Z,1022.67
2023-02-05T09:51:00.139Z,1022.76
2023-02-05T09:51:59.739Z,1022.69
2023-02-05T09:52:59.721Z,1022.71
2023-02-05T09:53:59.735Z,1022.70
2023-02-05T09:54:59.740Z,1022.75
2023-02-05T09:56:00.181Z,1022.76
2023-02-05T09:57:00.177Z,1022.88
2023-02-05T09:57:59.758Z,1022.78
2023-02-05T09:58:59.768Z,1022.79
2023-02-05T09:59:59.778Z,1022.81
2023-02-05T10:00:59.827Z,1022.82
2023-02-05T10:01:59.681Z,1022.86
2023-02-05T10:02:59.803Z,1022.81
2023-02-05T10:03:59.818Z,1022.80
2023-02-05T10:04:59.808Z,1022.82
2023-02-05T10:05:59.814Z,1022.76
2023-02-05T10:06:59.816Z,1022.68
2023-02-05T10:07:59.633Z,1022.73
2023-02-05T10:08:59.641Z,1022.70
2023-02-05T10:09:59.643Z,1022.64
2023-02-05T10:10:59.643Z,1022.69
2023-02-05T10:11:59.672Z,1022.70
2023-02-05T10:12:59.666Z,1022.67
2023-02-05T10:13:59.721Z,1022.64
2023-02-05T10:14:59.562Z,1022.65
2023-02-05T10:15:59.712Z,1022.66
2023-02-05T10:16:59.682Z,1022.66
2023-02-05T10:17:59.691Z,1022.76
2023-02-05T10:18:59.698Z,1022.76
2023-02-05T10:19:59.605Z,1022.81
2023-02-05T10:20:59.710Z,1022.77
2023-02-05T10:21:59.550Z,1022.86
2023-02-05T10:22:59.528Z,1022.81
2023-02-05T10:23:59.519Z,1022.86
2023-02-05T10:24:59.537Z,1022.89
2023-02-05T10:25:59.504Z,1022.82
2023-02-05T10:26:59.549Z,1022.79
2023-02-05T10:27:59.578Z,1022.82
2023-02-05T10:28:59.585Z,1022.81
2023-02-05T10:29:59.579Z,1022.81
2023-02-05T10:30:59.549Z,1022.76
2023-02-05T10:31:59.499Z,1022.81
2023-02-05T10:32:59.464Z,1022.80
2023-02-05T10:33:59.698Z,1022.82
2023-02-05T10:34:59.453Z,1022.77
2023-02-05T10:35:59.435Z,1022.79
2023-02-05T10:36:59.633Z,1022.79
2023-02-05T10:37:59.629Z,1022.75
2023-02-05T10:38:59.657Z,1022.78
2023-02-05T10:39:59.403Z,1022.77
2023-02-05T10:41:00.624Z,1022.76
2023-02-05T10:41:59.666Z,1022.71
2023-02-05T10:42:59.380Z,1022.69
2023-02-05T10:43:59.374Z,1022.67
2023-02-05T10:44:59.676Z,1022.73
2023-02-05T10:45:59.515Z,1022.75
2023-02-05T10:46:59.427Z,1022.70
2023-02-05T10:47:59.707Z,1022.75
2023-02-05T10:48:59.750Z,1022.79
2023-02-05T10:49:59.719Z,1022.82
2023-02-05T10:50:59.343Z,1022.83
2023-02-05T10:51:59.324Z,1022.82
2023-02-05T10:52:59.325Z,1022.82
2023-02-05T10:53:59.334Z,1022.86
2023-02-05T10:54:59.359Z,1022.89
2023-02-05T10:55:59.344Z,1022.81
2023-02-05T10:56:59.354Z,1022.87
2023-02-05T10:57:59.363Z,1022.83
2023-02-05T10:58:59.593Z,1022.92
2023-02-05T10:59:59.655Z,1022.88
2023-02-05T11:00:59.594Z,1022.90
2023-02-05T11:01:59.360Z,1022.91
2023-02-05T11:02:59.871Z,1022.93
2023-02-05T11:03:59.816Z,1022.91
2023-02-05T11:04:59.253Z,1022.96
2023-02-05T11:05:59.244Z,1022.93
2023-02-05T11:06:59.254Z,1022.91
2023-02-05T11:07:59.277Z,1022.93
2023-02-05T11:08:59.266Z,1022.90
2023-02-05T11:09:59.241Z,1022.88
2023-02-05T11:10:59.211Z,1022.95
2023-02-05T11:11:59.200Z,1023.03
2023-02-05T11:12:59.485Z,1022.99
2023-02-05T11:13:59.190Z,1022.99
2023-02-05T11:14:59.301Z,1023.00
2023-02-05T11:15:59.739Z,1023.04
2023-02-05T11:16:59.700Z,1023.03
2023-02-05T11:17:59.519Z,1023.01
2023-02-05T11:18:59.212Z,1023.08
2023-02-05T11:19:59.192Z,1023.02
2023-02-05T11:20:59.147Z,1023.05
2023-02-05T11:21:59.937Z,1023.01
2023-02-05T11:22:59.736Z,1023.07
2023-02-05T11:23:59.825Z,1023.05
2023-02-05T11:24:59.964Z,1023.07
2023-02-05T11:25:59.148Z,1023.05
2023-02-05T11:26:59.904Z,1023.03
2023-02-05T11:28:00.185Z,1023.08
2023-02-05T11:28:59.962Z,1023.14
2023-02-05T11:29:59.075Z,1023.09
2023-02-05T11:30:59.582Z,1023.06
2023-02-05T11:31:59.153Z,1023.07
2023-02-05T11:32:59.104Z,1023.04
2023-02-05T11:33:59.054Z,1023.02
2023-02-05T11:34:59.035Z,1023.02
2023-02-05T11:35:59.049Z,1023.10
2023-02-05T11:36:59.042Z,1022.99
2023-02-05T11:37:59.273Z,1022.99
2023-02-05T11:38:59.132Z,1022.93
2023-02-05T11:39:59.070Z,1022.99
2023-02-05T11:40:59.042Z,1022.93
2023-02-05T11:41:59.092Z,1022.93
2023-02-05T11:42:59.054Z,1022.95
2023-02-05T11:43:59.012Z,1022.88
2023-02-05T11:44:59.076Z,1022.92
2023-02-05T11:45:59.084Z,1022.92
2023-02-05T11:46:58.991Z,1022.92
2023-02-05T11:47:59.092Z,1022.92
2023-02-05T11:48:59.106Z,1022.95
2023-02-05T11:49:59.128Z,1022.96
2023-02-05T11:50:59.032Z,1022.95
2023-02-05T11:51:59.142Z,1023.00
2023-02-05T11:52:58.920Z,1022.94
2023-02-05T11:53:59.163Z,1022.93
2023-02-05T11:54:59.150Z,1022.96
2023-02-05T11:55:58.951Z,1022.99
2023-02-05T11:56:59.170Z,1023.01
2023-02-05T11:57:59.170Z,1023.00
2023-02-05T11:58:59.181Z,1023.06
2023-02-05T11:59:59.201Z,1023.05
2023-02-05T12:00:59.198Z,1023.10
2023-02-05T12:01:59.420Z,1023.10
2023-02-05T12:02:59.435Z,1023.04
2023-02-05T12:03:59.427Z,1023.11
2023-02-05T12:04:59.041Z,1023.11